Time;durP1;ratioP1;P1;durP2;ratioP2;P2;SDS_P1;SDS_P2;PMS_P1;PMS_P2;Temp;Humidity;BMP_temperature;BMP_pressure;BME280_temperature;BME280_humidity;BME280_pressure;Samples;Min_cycle;Max_cycle;Signal;HPM_P1;HPM_P2
2022/05/21 00:01:10;;;;;;;6.33;2.37;;;16.60;59.60;;;;;;4994139;28;20582;-61
2022/05/21 00:03:35;;;;;;;7.30;2.37;;;16.60;59.50;;;;;;4976075;28;20184;-60
2022/05/21 00:06:01;;;;;;;7.20;2.37;;;16.60;59.70;;;;;;4993675;28;20192;-58
2022/05/21 00:08:27;;;;;;;4.60;2.30;;;16.50;60.00;;;;;;4993742;28;20176;-59
2022/05/21 00:10:53;;;;;;;10.77;3.10;;;16.40;60.50;;;;;;4976469;28;20203;-58
2022/05/21 00:13:19;;;;;;;5.03;2.33;;;16.40;60.50;;;;;;4993967;28;20181;-58
2022/05/21 00:15:45;;;;;;;3.60;2.10;;;16.30;60.80;;;;;;4993417;28;20215;-59
2022/05/21 00:18:10;;;;;;;5.50;2.50;;;16.20;60.90;;;;;;4993625;28;20199;-59
2022/05/21 00:20:48;;;;;;;5.17;2.30;;;16.20;60.90;;;;;;4993208;28;20241;-59
2022/05/21 00:23:20;;;;;;;5.10;2.17;;;16.10;61.30;;;;;;4993163;28;20191;-60
2022/05/21 00:25:48;;;;;;;6.67;2.37;;;16.10;61.30;;;;;;4993888;28;20309;-59
2022/05/21 00:28:14;;;;;;;6.77;2.60;;;16.10;61.30;;;;;;4993518;28;20514;-59
2022/05/21 00:30:40;;;;;;;5.27;2.30;;;16.10;61.60;;;;;;4993337;28;20199;-58
2022/05/21 00:33:06;;;;;;;6.40;2.77;;;16.10;61.80;;;;;;5000430;28;20195;-60
2022/05/21 00:35:32;;;;;;;11.90;3.43;;;16.00;61.90;;;;;;5012742;28;20222;-59
2022/05/21 00:37:59;;;;;;;6.10;3.10;;;16.00;61.90;;;;;;5012738;28;20544;-60
2022/05/21 00:40:26;;;;;;;9.77;3.27;;;16.00;61.80;;;;;;5012896;28;20708;-59
2022/05/21 00:42:52;;;;;;;4.43;2.60;;;16.00;61.80;;;;;;5012949;28;20174;-60
2022/05/21 00:45:18;;;;;;;4.50;2.30;;;16.00;61.70;;;;;;5012773;28;20655;-59
2022/05/21 00:47:44;;;;;;;4.83;2.47;;;16.00;61.70;;;;;;5012119;28;20191;-59
2022/05/21 00:50:13;;;;;;;8.67;2.60;;;16.10;61.70;;;;;;5012653;28;20184;-59
2022/05/21 00:52:39;;;;;;;4.63;2.20;;;16.10;61.70;;;;;;5012778;28;20181;-59
2022/05/21 00:55:32;;;;;;;6.07;2.90;;;16.10;61.90;;;;;;5012604;28;20272;-59
2022/05/21 01:00:46;;;;;;;5.20;2.40;;;16.00;62.20;;;;;;5012337;28;20361;-58
2022/05/21 01:03:13;;;;;;;5.70;2.40;;;16.00;62.40;;;;;;5012493;28;20188;-58
2022/05/21 01:05:39;;;;;;;7.30;2.77;;;15.90;62.60;;;;;;5012125;28;20197;-58
2022/05/21 01:08:05;;;;;;;7.63;2.73;;;15.90;62.60;;;;;;5012057;28;20190;-59
2022/05/21 01:10:36;;;;;;;8.23;2.80;;;15.80;62.80;;;;;;5011929;28;20270;-58
2022/05/21 01:13:06;;;;;;;4.90;2.53;;;15.80;63.00;;;;;;5012420;28;20175;-58
2022/05/21 01:15:40;;;;;;;7.67;2.77;;;15.80;63.00;;;;;;5012055;28;20217;-58
2022/05/21 01:18:07;;;;;;;7.23;2.50;;;15.70;63.10;;;;;;5012335;28;20322;-58
2022/05/21 01:20:48;;;;;;;15.57;2.60;;;15.80;63.30;;;;;;5011872;28;20186;-60
2022/05/21 01:23:18;;;;;;;7.93;2.40;;;15.80;63.40;;;;;;5011896;28;20226;-59
2022/05/21 01:25:46;;;;;;;5.47;2.57;;;15.80;63.50;;;;;;5011630;28;20615;-59
2022/05/21 01:28:14;;;;;;;12.00;3.63;;;15.70;63.60;;;;;;5012030;28;20211;-58
2022/05/21 01:30:44;;;;;;;7.07;2.37;;;15.70;63.70;;;;;;5011903;28;20192;-58
2022/05/21 01:33:12;;;;;;;17.10;2.90;;;15.70;64.00;;;;;;5004000;28;20275;-59
2022/05/21 01:35:40;;;;;;;10.13;2.70;;;15.60;64.20;;;;;;4991370;28;20214;-58
2022/05/21 01:38:08;;;;;;;8.53;2.83;;;15.60;65.30;;;;;;4992308;28;20186;-58
2022/05/21 01:40:34;;;;;;;7.63;2.70;;;15.60;64.90;;;;;;4992310;28;20198;-58
2022/05/21 01:45:44;;;;;;;7.70;2.43;;;15.50;64.80;;;;;;4992103;28;20235;-59
2022/05/21 01:48:10;;;;;;;5.83;2.47;;;15.50;64.90;;;;;;4992003;28;20190;-58
2022/05/21 01:50:37;;;;;;;5.07;2.70;;;15.60;64.90;;;;;;4992076;28;20272;-59
2022/05/21 01:53:03;;;;;;;7.13;2.73;;;15.60;64.80;;;;;;4991955;28;20253;-58
2022/05/21 01:55:29;;;;;;;6.07;2.33;;;15.60;65.00;;;;;;4991825;28;20231;-60
2022/05/21 01:57:55;;;;;;;14.33;3.33;;;15.60;65.10;;;;;;4992107;28;20269;-59
2022/05/21 02:00:21;;;;;;;4.90;2.50;;;15.60;65.50;;;;;;4992392;28;20290;-58
2022/05/21 02:02:46;;;;;;;10.63;3.37;;;15.50;65.60;;;;;;4991677;28;20199;-58
2022/05/21 02:05:12;;;;;;;10.07;2.90;;;15.40;66.00;;;;;;4991986;28;20180;-58
2022/05/21 02:07:38;;;;;;;8.23;2.63;;;15.30;66.60;;;;;;4991585;28;20626;-58
2022/05/21 02:10:05;;;;;;;12.60;2.90;;;15.20;66.80;;;;;;4991985;28;20196;-58
2022/05/21 02:12:32;;;;;;;7.37;2.93;;;15.20;66.90;;;;;;4991529;28;20192;-59
2022/05/21 02:14:58;;;;;;;4.87;2.33;;;15.10;67.50;;;;;;4991787;28;20303;-58
2022/05/21 02:17:24;;;;;;;10.63;2.93;;;15.10;67.60;;;;;;4991768;28;20192;-58
2022/05/21 02:19:50;;;;;;;6.40;2.60;;;15.10;67.50;;;;;;4992073;28;20180;-59
2022/05/21 02:22:16;;;;;;;10.70;2.83;;;15.20;67.10;;;;;;4991708;28;20642;-58
2022/05/21 02:24:43;;;;;;;7.67;2.20;;;15.30;66.80;;;;;;4991655;28;20196;-58
2022/05/21 02:27:09;;;;;;;8.73;3.30;;;15.50;66.40;;;;;;4991871;28;20609;-57
2022/05/21 02:29:35;;;;;;;8.47;3.00;;;15.60;66.00;;;;;;4991604;28;20695;-59
2022/05/21 02:32:01;;;;;;;9.47;2.90;;;15.70;65.60;;;;;;4992133;28;20180;-59
2022/05/21 02:34:26;;;;;;;5.87;2.43;;;15.80;65.40;;;;;;5009721;28;20234;-59
2022/05/21 02:39:37;;;;;;;10.93;2.63;;;15.80;65.30;;;;;;5011155;28;20191;-59
2022/05/21 02:42:03;;;;;;;15.50;3.17;;;15.80;65.40;;;;;;5011388;28;20257;-59
2022/05/21 02:44:29;;;;;;;14.93;3.80;;;15.80;65.40;;;;;;5010964;28;20188;-61
2022/05/21 02:46:55;;;;;;;8.63;2.67;;;15.80;65.80;;;;;;5014772;28;20176;-58
2022/05/21 02:49:22;;;;;;;6.93;2.93;;;15.70;66.10;;;;;;5015097;28;20186;-60
2022/05/21 02:51:48;;;;;;;7.87;2.20;;;15.70;66.40;;;;;;4997219;28;20624;-59
2022/05/21 02:54:14;;;;;;;11.60;3.03;;;15.60;66.90;;;;;;5014607;28;20237;-59
2022/05/21 02:56:49;;;;;;;7.93;2.70;;;15.40;68.00;;;;;;5014265;28;20706;-59
2022/05/21 02:59:15;;;;;;;12.00;3.00;;;15.40;68.00;;;;;;5014742;28;20634;-58
2022/05/21 03:01:41;;;;;;;14.90;3.30;;;15.40;68.30;;;;;;5014414;28;20687;-60
2022/05/21 03:04:08;;;;;;;7.17;2.53;;;15.40;68.20;;;;;;5014597;28;20288;-59
2022/05/21 03:06:35;;;;;;;9.00;2.90;;;15.40;68.30;;;;;;5014556;28;20190;-59
2022/05/21 03:11:45;;;;;;;8.70;2.87;;;15.60;67.70;;;;;;5014339;28;20227;-58
2022/05/21 03:14:11;;;;;;;8.37;3.43;;;15.70;67.40;;;;;;5014224;28;20252;-58
2022/05/21 03:16:37;;;;;;;7.37;2.83;;;15.80;67.20;;;;;;5014242;28;20659;-59
2022/05/21 03:19:03;;;;;;;14.60;3.67;;;16.00;66.30;;;;;;5014275;28;20191;-58
2022/05/21 03:21:29;;;;;;;12.63;4.43;;;16.10;65.90;;;;;;5013931;28;20613;-59
2022/05/21 03:23:56;;;;;;;8.53;3.33;;;16.30;65.60;;;;;;5013787;28;20191;-58
2022/05/21 03:26:22;;;;;;;6.47;2.57;;;16.50;64.70;;;;;;5014104;28;20238;-57
2022/05/21 03:28:47;;;;;;;7.83;2.87;;;16.60;64.50;;;;;;5013916;28;20188;-59
2022/05/21 03:31:13;;;;;;;13.07;3.43;;;16.70;63.90;;;;;;5014046;28;20183;-57
2022/05/21 03:33:39;;;;;;;16.30;2.87;;;16.80;63.90;;;;;;5001821;28;20226;-58
2022/05/21 03:36:05;;;;;;;14.90;3.53;;;16.90;64.00;;;;;;4994117;28;20282;-58
2022/05/21 03:38:31;;;;;;;8.70;3.80;;;16.90;63.90;;;;;;4993897;28;20188;-58
2022/05/21 03:40:56;;;;;;;25.87;4.57;;;17.00;64.50;;;;;;4994245;28;20184;-57
2022/05/21 03:43:23;;;;;;;10.43;3.37;;;17.00;65.40;;;;;;4993961;28;20299;-57
2022/05/21 03:45:50;;;;;;;4.63;2.47;;;17.10;64.60;;;;;;4993758;28;20667;-57
2022/05/21 03:48:17;;;;;;;14.67;3.37;;;17.10;63.90;;;;;;4994050;28;20315;-58
2022/05/21 03:50:43;;;;;;;8.50;2.80;;;17.20;63.70;;;;;;4993952;28;20192;-58
2022/05/21 03:53:10;;;;;;;14.07;3.30;;;17.20;63.60;;;;;;4993961;28;20232;-59
2022/05/21 03:55:37;;;;;;;8.87;2.77;;;17.30;63.50;;;;;;4993969;28;20692;-58
2022/05/21 03:58:03;;;;;;;11.37;3.20;;;17.40;63.10;;;;;;4992732;28;20179;-59
2022/05/21 04:00:29;;;;;;;7.73;3.40;;;17.50;62.80;;;;;;4993357;28;20187;-59
2022/05/21 04:02:56;;;;;;;19.73;3.10;;;17.60;62.60;;;;;;4993808;28;20614;-59
2022/05/21 04:05:23;;;;;;;8.20;2.90;;;17.70;62.50;;;;;;4993523;28;20234;-57
2022/05/21 04:07:49;;;;;;;10.57;2.93;;;17.80;62.50;;;;;;4993516;28;20184;-57
2022/05/21 04:10:17;;;;;;;10.43;2.73;;;17.80;62.20;;;;;;4993784;28;20180;-58
2022/05/21 04:12:43;;;;;;;12.83;2.90;;;17.90;62.10;;;;;;4993746;28;20246;-57
2022/05/21 04:15:11;;;;;;;15.83;2.83;;;18.00;62.40;;;;;;4993607;28;20307;-57
2022/05/21 04:17:37;;;;;;;12.03;2.73;;;18.10;62.00;;;;;;4993509;28;20267;-58
2022/05/21 04:20:07;;;;;;;10.27;5.27;;;18.20;62.00;;;;;;4993588;28;20264;-59
2022/05/21 04:22:33;;;;;;;7.27;2.83;;;18.30;61.70;;;;;;4993206;28;20196;-57
2022/05/21 04:24:59;;;;;;;10.57;3.10;;;18.30;61.80;;;;;;4993593;28;20263;-57
2022/05/21 04:27:25;;;;;;;8.10;3.27;;;18.40;61.70;;;;;;4993269;28;20264;-59
2022/05/21 04:29:51;;;;;;;10.47;2.53;;;18.50;61.80;;;;;;4992856;28;20183;-59
2022/05/21 04:32:19;;;;;;;11.10;3.23;;;18.60;61.60;;;;;;4993456;28;20630;-58
2022/05/21 04:34:45;;;;;;;10.07;2.90;;;18.60;61.90;;;;;;5012577;28;20701;-57
2022/05/21 04:37:11;;;;;;;11.70;2.97;;;18.70;62.00;;;;;;5012313;28;20219;-58
2022/05/21 04:39:37;;;;;;;13.20;2.93;;;18.80;62.00;;;;;;5012461;28;20635;-57
2022/05/21 04:42:02;;;;;;;5.23;2.43;;;18.80;62.00;;;;;;5012930;28;20712;-58
2022/05/21 04:44:31;;;;;;;12.13;3.80;;;18.90;61.60;;;;;;5012037;28;20184;-60
2022/05/21 04:46:58;;;;;;;11.70;3.17;;;19.10;61.20;;;;;;5012764;28;20196;-57
2022/05/21 04:49:24;;;;;;;9.17;3.30;;;19.30;59.90;;;;;;5012230;28;20187;-57
2022/05/21 04:51:50;;;;;;;23.93;3.00;;;19.50;58.80;;;;;;5012339;28;20231;-57
2022/05/21 04:54:16;;;;;;;11.20;2.70;;;19.70;58.30;;;;;;5011897;28;20231;-59
2022/05/21 04:56:42;;;;;;;5.60;2.37;;;19.80;58.00;;;;;;5012145;28;20665;-58
2022/05/21 04:59:09;;;;;;;9.17;3.00;;;19.90;57.80;;;;;;5012047;28;20183;-59
2022/05/21 05:01:36;;;;;;;12.75;2.95;;;20.00;57.50;;;;;;5012111;28;20241;-58
2022/05/21 05:04:02;;;;;;;7.40;2.67;;;20.20;57.30;;;;;;5012224;28;20704;-59
2022/05/21 05:06:28;;;;;;;6.22;2.10;;;20.40;56.90;;;;;;5012171;28;20183;-60
2022/05/21 05:08:54;;;;;;;5.43;2.25;;;20.50;56.50;;;;;;5012020;28;20199;-58
2022/05/21 05:11:19;;;;;;;10.60;2.70;;;20.70;56.40;;;;;;5011846;28;20191;-58
2022/05/21 05:13:45;;;;;;;5.63;2.22;;;20.80;56.00;;;;;;5011523;28;20184;-58
2022/05/21 05:16:11;;;;;;;5.65;2.90;;;21.00;55.30;;;;;;5011784;28;20625;-58
2022/05/21 05:18:36;;;;;;;5.20;2.40;;;21.10;55.20;;;;;;5011784;28;20195;-58
2022/05/21 05:21:02;;;;;;;8.60;3.33;;;21.20;55.30;;;;;;5012371;28;20262;-58
2022/05/21 05:23:28;;;;;;;6.85;2.88;;;21.30;54.70;;;;;;5011953;28;20202;-58
2022/05/21 05:25:54;;;;;;;17.30;2.53;;;21.50;55.00;;;;;;5011872;28;20246;-59
2022/05/21 05:28:22;;;;;;;11.20;3.05;;;21.60;54.50;;;;;;5011843;28;20656;-58
2022/05/21 05:30:48;;;;;;;6.18;2.90;;;21.80;54.60;;;;;;5011509;28;20234;-58
2022/05/21 05:33:15;;;;;;;10.73;2.83;;;21.90;53.90;;;;;;5003170;28;20688;-58
2022/05/21 05:35:41;;;;;;;9.50;2.55;;;21.90;53.60;;;;;;4991622;28;20311;-58
2022/05/21 05:38:12;;;;;;;10.70;2.80;;;21.80;53.80;;;;;;4991986;28;20661;-58
2022/05/21 05:40:41;;;;;;;8.48;3.63;;;21.80;54.40;;;;;;4991869;28;20184;-59
2022/05/21 05:43:07;;;;;;;12.15;2.65;;;21.80;55.30;;;;;;4974382;28;20613;-59
2022/05/21 05:45:33;;;;;;;6.88;3.05;;;21.80;54.60;;;;;;4991101;28;20287;-59
2022/05/21 05:47:59;;;;;;;9.32;2.50;;;21.80;54.40;;;;;;4992195;28;20192;-60
2022/05/21 05:50:25;;;;;;;6.20;2.55;;;21.70;54.40;;;;;;4991874;28;20263;-57
2022/05/21 05:52:51;;;;;;;9.75;2.75;;;21.70;54.80;;;;;;4991317;28;20445;-58
2022/05/21 05:55:17;;;;;;;8.18;2.70;;;21.70;55.00;;;;;;4991366;28;20227;-58
2022/05/21 05:57:42;;;;;;;6.78;2.90;;;21.60;54.90;;;;;;4991203;28;20242;-57
2022/05/21 06:00:09;;;;;;;7.32;2.67;;;21.60;55.40;;;;;;4991166;28;20196;-60
2022/05/21 06:05:22;;;;;;;9.00;2.67;;;21.70;55.10;;;;;;4991936;28;20288;-60
2022/05/21 06:08:07;;;;;;;5.63;2.50;;;22.10;55.20;;;;;;4991475;28;20180;-58
2022/05/21 06:10:36;;;;;;;16.05;2.85;;;22.40;54.50;;;;;;4991261;28;20589;-59
2022/05/21 06:13:04;;;;;;;9.57;3.55;;;22.80;54.50;;;;;;4991764;28;20191;-59
2022/05/21 06:15:30;;;;;;;5.15;2.70;;;23.10;53.60;;;;;;4991068;28;20266;-60
2022/05/21 06:17:55;;;;;;;14.82;2.85;;;23.30;53.20;;;;;;4991386;28;20189;-59
2022/05/21 06:20:24;;;;;;;11.93;3.10;;;23.60;53.00;;;;;;4992300;28;20696;-59
2022/05/21 06:22:50;;;;;;;12.68;4.93;;;23.80;53.00;;;;;;4994959;28;20275;-58
2022/05/21 06:25:20;;;;;;;8.48;2.78;;;23.90;52.70;;;;;;4994767;28;20208;-59
2022/05/21 06:27:47;;;;;;;3.75;2.10;;;24.20;52.20;;;;;;4994695;28;20185;-59
2022/05/21 06:30:14;;;;;;;6.20;2.60;;;24.00;50.80;;;;;;4995122;28;20231;-59
2022/05/21 06:32:40;;;;;;;11.07;2.60;;;24.00;51.20;;;;;;4998425;28;20184;-59
2022/05/21 06:35:07;;;;;;;9.23;2.42;;;24.00;51.20;;;;;;5014207;28;20215;-58
2022/05/21 06:37:34;;;;;;;8.48;3.00;;;23.80;50.70;;;;;;5013881;28;20176;-66
2022/05/21 06:39:59;;;;;;;5.95;2.60;;;23.70;50.80;;;;;;5014948;28;20176;-59
2022/05/21 06:42:25;;;;;;;11.38;2.58;;;23.50;50.50;;;;;;5014517;28;20187;-60
2022/05/21 06:44:51;;;;;;;9.77;2.83;;;23.30;50.90;;;;;;5013897;28;20630;-60
2022/05/21 06:47:17;;;;;;;7.53;3.35;;;23.10;51.20;;;;;;4996534;28;20195;-60
2022/05/21 06:49:43;;;;;;;8.23;2.67;;;22.90;51.80;;;;;;5014240;28;20578;-58
2022/05/21 06:52:09;;;;;;;11.98;2.50;;;22.80;52.50;;;;;;5014081;28;20227;-58
2022/05/21 06:54:35;;;;;;;9.13;2.75;;;22.60;52.10;;;;;;5013776;28;20249;-62
2022/05/21 06:57:00;;;;;;;6.53;2.55;;;22.50;52.80;;;;;;5014255;28;20740;-59
2022/05/21 06:59:27;;;;;;;9.15;2.53;;;22.50;53.00;;;;;;5014290;28;20219;-60
2022/05/21 07:01:53;;;;;;;14.23;2.58;;;22.60;53.00;;;;;;5014159;28;20585;-59
2022/05/21 07:07:32;;;;;;;11.55;2.85;;;22.70;52.70;;;;;;4996606;28;20253;-59
2022/05/21 07:09:49;;;;;;;11.10;3.88;;;23.10;52.90;;;;;;5014024;28;20589;-59
2022/05/21 07:12:15;;;;;;;11.32;2.78;;;23.20;53.00;;;;;;5013884;28;20203;-60
2022/05/21 07:14:40;;;;;;;8.57;2.67;;;23.50;53.00;;;;;;4996170;28;20226;-59
2022/05/21 07:17:06;;;;;;;9.40;3.35;;;23.60;51.60;;;;;;5013503;28;20228;-62
2022/05/21 07:19:34;;;;;;;7.28;2.65;;;23.80;52.00;;;;;;5013818;28;20192;-60
2022/05/21 07:22:03;;;;;;;16.73;3.47;;;24.00;51.40;;;;;;5013304;28;20230;-59
2022/05/21 07:24:28;;;;;;;8.52;2.28;;;24.50;51.20;;;;;;5013720;28;20638;-59
2022/05/21 07:26:54;;;;;;;6.18;2.60;;;25.00;50.30;;;;;;5013181;28;20203;-59
2022/05/21 07:29:20;;;;;;;7.53;2.90;;;25.20;49.80;;;;;;5013648;28;20259;-59
2022/05/21 07:31:45;;;;;;;7.32;2.70;;;25.30;49.60;;;;;;5013029;28;20234;-59
2022/05/21 07:34:11;;;;;;;9.55;2.35;;;25.30;49.70;;;;;;4997040;28;20554;-60
2022/05/21 07:36:37;;;;;;;6.80;3.00;;;25.10;50.30;;;;;;4993676;28;20224;-61
2022/05/21 07:39:03;;;;;;;9.73;3.00;;;25.10;51.30;;;;;;4993989;28;20589;-60
2022/05/21 07:41:28;;;;;;;13.23;3.45;;;25.10;50.70;;;;;;4993321;28;20176;-57
2022/05/21 07:43:54;;;;;;;7.03;2.53;;;25.00;51.10;;;;;;4993333;28;20555;-59
2022/05/21 07:46:20;;;;;;;6.28;2.47;;;24.90;51.10;;;;;;4993324;28;20184;-60
2022/05/21 07:48:45;;;;;;;15.05;3.30;;;24.80;51.00;;;;;;4993439;28;20541;-59
2022/05/21 07:51:11;;;;;;;28.05;5.22;;;24.70;51.40;;;;;;4993633;28;20181;-58
2022/05/21 07:53:39;;;;;;;7.63;2.50;;;24.80;51.90;;;;;;4993418;28;20720;-59
2022/05/21 07:56:10;;;;;;;11.52;2.83;;;24.90;52.30;;;;;;4993200;28;20227;-60
2022/05/21 07:58:37;;;;;;;6.68;3.28;;;25.10;52.20;;;;;;4975931;28;20554;-59
2022/05/21 08:01:02;;;;;;;13.18;3.08;;;25.20;51.30;;;;;;4975697;28;20390;-60
2022/05/21 08:03:29;;;;;;;6.25;2.55;;;25.30;51.10;;;;;;4993291;28;20275;-59
2022/05/21 08:05:55;;;;;;;8.18;2.88;;;25.40;50.80;;;;;;4993095;28;20187;-59
2022/05/21 08:08:22;;;;;;;10.40;2.67;;;25.40;50.90;;;;;;4992732;28;20191;-59
2022/05/21 08:10:48;;;;;;;9.63;2.92;;;25.40;50.80;;;;;;4992995;28;20206;-61
2022/05/21 08:13:16;;;;;;;7.45;2.97;;;25.50;51.00;;;;;;4993074;28;20540;-59
2022/05/21 08:15:43;;;;;;;11.98;3.33;;;25.50;50.80;;;;;;4975123;28;20216;-59
2022/05/21 08:18:09;;;;;;;15.30;3.20;;;25.50;50.80;;;;;;4992849;28;20181;-60
2022/05/21 08:20:37;;;;;;;13.68;3.10;;;25.80;50.40;;;;;;4992898;28;20176;-60
2022/05/21 08:28:34;;;;;;;12.57;3.05;;;26.10;49.20;;;;;;4992827;28;20242;-59
2022/05/21 08:31:00;;;;;;;7.32;2.72;;;26.10;49.60;;;;;;4992414;28;20229;-59
2022/05/21 08:33:27;;;;;;;8.68;2.63;;;26.10;49.20;;;;;;5002804;28;20188;-58
2022/05/21 08:35:52;;;;;;;7.00;2.70;;;26.30;49.30;;;;;;5011874;28;20286;-59
2022/05/21 08:38:18;;;;;;;9.95;2.50;;;26.50;48.90;;;;;;5012036;28;20184;-58
2022/05/21 08:41:03;;;;;;;4.45;2.33;;;26.50;48.30;;;;;;5012153;28;20184;-61
2022/05/21 08:43:53;;;;;;;9.80;2.70;;;26.60;48.00;;;;;;5011787;28;20679;-60
2022/05/21 08:47:04;;;;;;;4.43;2.50;;;26.80;47.80;;;;;;5011831;28;20183;-59
2022/05/21 08:49:33;;;;;;;8.98;2.60;;;26.60;48.10;;;;;;5007631;28;20187;-59
2022/05/21 08:51:58;;;;;;;4.45;2.28;;;27.10;48.40;;;;;;5011954;28;20184;-59
2022/05/21 08:54:32;;;;;;;7.93;2.92;;;27.50;47.40;;;;;;5012395;28;20258;-59
2022/05/21 08:56:57;;;;;;;6.82;3.03;;;27.60;46.80;;;;;;5011199;28;20223;-59
2022/05/21 08:59:30;;;;;;;9.27;2.63;;;27.70;46.60;;;;;;5011769;28;20222;-59
2022/05/21 09:01:57;;;;;;;18.10;2.58;;;27.60;46.90;;;;;;5011907;28;20260;-60
2022/05/21 09:04:23;;;;;;;5.45;2.40;;;27.50;47.20;;;;;;4994222;28;20621;-59
2022/05/21 09:07:01;;;;;;;10.55;2.85;;;27.30;47.70;;;;;;5011713;28;20187;-60
2022/05/21 09:09:49;;;;;;;6.72;3.00;;;27.20;48.00;;;;;;5011862;28;20180;-60
2022/05/21 09:12:22;;;;;;;6.15;2.63;;;26.90;47.70;;;;;;5012166;28;20179;-60
2022/05/21 09:15:01;;;;;;;6.47;2.58;;;26.80;48.10;;;;;;5011948;28;20207;-59
2022/05/21 09:17:27;;;;;;;4.47;2.95;;;26.80;48.10;;;;;;5011799;28;20213;-59
2022/05/21 09:20:04;;;;;;;18.48;3.55;;;26.80;48.10;;;;;;5011371;28;20629;-60
2022/05/21 09:22:31;;;;;;;7.65;2.92;;;26.80;48.20;;;;;;5011492;28;20557;-60
2022/05/21 09:24:58;;;;;;;9.27;4.22;;;26.90;48.30;;;;;;5011395;28;20245;-60
2022/05/21 09:27:38;;;;;;;11.68;3.50;;;27.10;48.00;;;;;;5011128;28;20183;-59
2022/05/21 09:30:25;;;;;;;4.47;2.90;;;27.10;47.70;;;;;;5010644;28;20259;-59
2022/05/21 09:32:57;;;;;;;7.63;2.58;;;27.00;48.00;;;;;;4988004;28;20177;-59
2022/05/21 09:35:29;;;;;;;6.28;2.58;;;27.20;47.70;;;;;;4991769;28;20251;-59
2022/05/21 09:37:58;;;;;;;6.13;2.42;;;27.00;48.20;;;;;;4991625;28;20180;-58
2022/05/21 09:40:31;;;;;;;6.32;2.58;;;26.90;47.80;;;;;;4991885;28;20184;-59
2022/05/21 09:45:42;;;;;;;9.68;2.80;;;26.50;48.20;;;;;;4992280;28;20287;-61
2022/05/21 09:48:08;;;;;;;12.52;2.97;;;26.40;48.70;;;;;;4991500;28;20181;-59
2022/05/21 09:50:51;;;;;;;8.02;3.05;;;26.40;49.20;;;;;;4991542;28;20180;-59
2022/05/21 09:53:36;;;;;;;8.48;3.13;;;26.30;49.10;;;;;;4991399;28;20238;-58
2022/05/21 09:56:04;;;;;;;7.82;2.70;;;25.90;49.20;;;;;;4990224;28;20639;-61
2022/05/21 09:58:39;;;;;;;5.88;2.75;;;25.90;49.50;;;;;;4991443;28;20176;-59
2022/05/21 10:01:07;;;;;;;7.68;3.20;;;25.70;49.50;;;;;;4990871;28;20183;-60
2022/05/21 10:03:47;;;;;;;8.98;2.80;;;25.70;49.90;;;;;;4974210;28;20533;-62
2022/05/21 10:06:36;;;;;;;9.82;2.97;;;25.80;50.20;;;;;;4991208;28;20618;-59
2022/05/21 10:12:29;;;;;;;6.28;2.55;;;25.80;49.90;;;;;;4991468;28;20187;-60
2022/05/21 10:15:19;;;;;;;6.47;3.90;;;25.80;50.20;;;;;;4991195;28;20207;-58
2022/05/21 10:17:51;;;;;;;16.35;3.80;;;25.80;50.60;;;;;;4981760;28;20216;-60
2022/05/21 10:20:23;;;;;;;8.35;3.10;;;25.90;50.50;;;;;;4991523;28;20181;-59
2022/05/21 10:23:16;;;;;;;9.93;3.42;;;25.80;50.50;;;;;;4990850;28;20192;-58
2022/05/21 10:26:14;;;;;;;11.55;3.30;;;25.60;51.10;;;;;;4991222;28;20191;-58
2022/05/21 10:28:54;;;;;;;9.52;3.45;;;25.60;51.50;;;;;;4991272;28;20276;-59
2022/05/21 10:31:53;;;;;;;5.72;3.42;;;25.70;51.60;;;;;;4990931;28;20231;-57
2022/05/21 10:34:22;;;;;;;7.50;3.50;;;25.80;51.50;;;;;;5007984;28;20641;-59
2022/05/21 10:37:26;;;;;;;4.65;3.13;;;25.80;51.50;;;;;;5009939;28;20216;-60
2022/05/21 10:40:22;;;;;;;8.98;3.17;;;25.70;51.60;;;;;;5010117;28;20575;-60
2022/05/21 10:42:59;;;;;;;8.60;4.00;;;25.70;51.50;;;;;;5010320;28;20180;-59
2022/05/21 10:45:52;;;;;;;7.63;3.08;;;26.10;51.90;;;;;;5010394;28;20238;-59
2022/05/21 10:48:48;;;;;;;7.72;3.88;;;26.20;51.60;;;;;;5010438;28;20187;-60
2022/05/21 10:51:30;;;;;;;7.28;3.28;;;26.20;51.90;;;;;;5010755;28;20176;-59
2022/05/21 10:54:11;;;;;;;6.72;3.03;;;26.30;51.90;;;;;;5010034;28;20236;-58
2022/05/21 10:56:58;;;;;;;4.32;2.83;;;26.60;51.00;;;;;;5010567;28;20220;-59
2022/05/21 10:59:37;;;;;;;16.02;3.78;;;26.60;50.80;;;;;;5010696;28;20603;-60
2022/05/21 11:02:06;;;;;;;9.27;3.47;;;26.80;51.00;;;;;;5010752;28;20182;-60
2022/05/21 11:04:43;;;;;;;6.15;3.00;;;26.90;50.40;;;;;;5010381;28;20176;-58
2022/05/21 11:07:24;;;;;;;7.47;3.00;;;27.10;50.30;;;;;;5012373;28;20213;-60
2022/05/21 11:10:40;;;;;;;14.65;3.83;;;27.10;50.40;;;;;;5013511;28;20213;-60
2022/05/21 11:13:17;;;;;;;9.63;3.03;;;27.00;50.60;;;;;;4980068;28;20203;-61
2022/05/21 11:15:57;;;;;;;5.43;2.75;;;27.00;50.70;;;;;;5013884;28;20215;-59
2022/05/21 11:18:26;;;;;;;8.88;3.47;;;26.90;50.60;;;;;;5014004;28;20274;-59
2022/05/21 11:21:11;;;;;;;12.27;3.58;;;27.00;51.30;;;;;;5013557;28;20187;-59
2022/05/21 11:24:06;;;;;;;5.55;2.78;;;27.10;50.90;;;;;;5014190;28;20182;-61
2022/05/21 11:26:42;;;;;;;9.10;2.97;;;27.00;51.30;;;;;;5014151;28;20594;-60
2022/05/21 11:29:24;;;;;;;9.55;3.15;;;26.90;51.70;;;;;;5013802;28;20179;-59
2022/05/21 11:38:32;;;;;;;9.07;3.17;;;26.30;53.60;;;;;;4933236;29;20201;-59
2022/05/21 11:43:53;;;;;;;5.80;2.75;;;28.10;50.80;;;;;;4993851;28;20191;-59
2022/05/21 11:46:20;;;;;;;6.00;3.33;;;28.90;49.30;;;;;;4994101;28;20625;-59
2022/05/21 11:48:46;;;;;;;12.05;3.33;;;29.20;48.40;;;;;;4976844;28;20551;-59
2022/05/21 11:51:24;;;;;;;4.85;3.20;;;29.00;48.50;;;;;;4993133;28;20181;-58
2022/05/21 11:53:51;;;;;;;5.50;2.90;;;29.10;48.50;;;;;;4993347;28;20594;-60
2022/05/21 11:56:17;;;;;;;8.07;2.70;;;29.70;47.80;;;;;;4993298;28;20222;-59
2022/05/21 11:58:58;;;;;;;9.27;3.08;;;30.30;47.30;;;;;;4993376;28;20193;-58
2022/05/21 12:01:41;;;;;;;6.72;2.90;;;30.80;46.60;;;;;;4993917;28;20224;-58
2022/05/21 12:04:45;;;;;;;9.45;2.95;;;31.70;45.30;;;;;;4993742;28;20181;-62
2022/05/21 12:07:48;;;;;;;3.85;2.50;;;33.50;43.30;;;;;;4993226;28;20254;-59
2022/05/21 12:10:27;;;;;;;6.18;3.03;;;34.10;41.80;;;;;;4993422;28;20207;-59
2022/05/21 12:13:22;;;;;;;6.38;2.53;;;33.50;42.70;;;;;;4993146;28;20184;-60
2022/05/21 12:15:52;;;;;;;9.32;2.88;;;33.50;42.90;;;;;;4953353;28;20291;-59
2022/05/21 12:18:33;;;;;;;8.93;2.85;;;34.30;42.30;;;;;;4975334;28;20203;-59
2022/05/21 12:21:00;;;;;;;7.18;3.03;;;35.90;41.00;;;;;;4992991;28;20230;-58
2022/05/21 12:23:32;;;;;;;5.97;2.35;;;35.70;39.70;;;;;;4993392;28;20190;-59
2022/05/21 12:26:19;;;;;;;4.93;2.80;;;34.70;40.80;;;;;;4992903;28;20188;-59
2022/05/21 12:29:10;;;;;;;8.60;3.47;;;34.70;41.50;;;;;;4993080;28;20208;-59
2022/05/21 12:31:49;;;;;;;8.13;2.72;;;35.30;40.80;;;;;;4993214;28;20180;-58
2022/05/21 12:35:03;;;;;;;11.55;4.60;;;35.60;40.10;;;;;;5009335;28;20770;-59
2022/05/21 12:37:51;;;;;;;12.45;3.53;;;35.00;40.70;;;;;;4932820;29;20190;-58
2022/05/21 12:40:32;;;;;;;5.57;2.67;;;35.40;41.10;;;;;;5007647;28;20619;-58
2022/05/21 12:43:15;;;;;;;5.03;3.08;;;37.20;39.30;;;;;;5012270;28;20168;-59
2022/05/21 12:45:49;;;;;;;12.45;2.95;;;38.50;38.30;;;;;;5012227;28;20187;-59
2022/05/21 12:48:18;;;;;;;6.47;3.15;;;38.10;37.50;;;;;;5012399;28;20234;-58
2022/05/21 12:50:48;;;;;;;10.32;3.30;;;37.90;37.80;;;;;;5011948;28;20293;-59
2022/05/21 12:53:19;;;;;;;4.80;2.83;;;37.40;37.80;;;;;;5011885;28;20240;-59
2022/05/21 12:55:44;;;;;;;10.60;3.17;;;36.40;38.70;;;;;;4994472;28;20211;-59
2022/05/21 12:58:17;;;;;;;5.45;2.80;;;36.20;39.60;;;;;;5011959;28;20227;-58
2022/05/21 13:00:51;;;;;;;5.38;2.78;;;36.80;39.40;;;;;;5012197;28;20167;-59
2022/05/21 13:03:18;;;;;;;7.30;2.67;;;36.00;39.70;;;;;;4994022;28;20270;-58
2022/05/21 13:05:59;;;;;;;6.25;2.78;;;34.70;40.40;;;;;;5011610;28;20200;-59
2022/05/21 13:08:26;;;;;;;6.95;3.05;;;33.80;42.10;;;;;;5011688;28;20266;-59
2022/05/21 13:11:18;;;;;;;13.10;2.78;;;32.80;43.90;;;;;;5012121;28;20230;-59
2022/05/21 13:13:46;;;;;;;3.97;2.38;;;32.80;43.90;;;;;;5012364;28;20184;-58
2022/05/21 13:16:17;;;;;;;9.95;2.97;;;33.20;43.30;;;;;;5011542;28;20289;-60
2022/05/21 13:19:06;;;;;;;15.55;3.88;;;32.70;43.80;;;;;;5012267;28;20608;-58
2022/05/21 13:21:49;;;;;;;8.40;3.30;;;32.70;43.90;;;;;;5011990;28;20624;-58
2022/05/21 13:24:20;;;;;;;10.80;2.95;;;32.00;44.40;;;;;;5011820;28;20183;-61
2022/05/21 13:27:08;;;;;;;10.23;3.15;;;30.60;47.10;;;;;;5011788;28;20207;-59
2022/05/21 13:29:34;;;;;;;14.50;3.22;;;30.20;47.60;;;;;;5011413;28;20183;-59
2022/05/21 13:32:27;;;;;;;6.22;2.80;;;29.30;49.10;;;;;;5011731;28;20182;-58
2022/05/21 13:34:59;;;;;;;3.88;2.50;;;28.60;50.20;;;;;;4982311;28;20196;-59
2022/05/21 13:37:44;;;;;;;8.68;3.40;;;27.90;51.70;;;;;;4992050;28;20260;-59
2022/05/21 13:40:25;;;;;;;5.13;2.83;;;27.70;52.20;;;;;;4991728;28;20192;-61